sensor_id;sensor_type;location;lat;lon;timestamp;temperature;humidity
32147;DHT22;32190;49.112;8.598;2022-12-20T00:05:41;6.50;63.20
32147;DHT22;32190;49.112;8.598;2022-12-20T00:11:33;6.50;63.20
32147;DHT22;32190;49.112;8.598;2022-12-20T00:17:24;6.40;63.30
32147;DHT22;32190;49.112;8.598;2022-12-20T00:23:14;6.50;63.50
32147;DHT22;32190;49.112;8.598;2022-12-20T00:29:06;6.50;63.50
32147;DHT22;32190;49.112;8.598;2022-12-20T00:34:57;6.50;63.60
32147;DHT22;32190;49.112;8.598;2022-12-20T00:40:57;6.50;63.70
32147;DHT22;32190;49.112;8.598;2022-12-20T00:46:48;6.50;63.90
32147;DHT22;32190;49.112;8.598;2022-12-20T00:52:38;6.50;63.90
32147;DHT22;32190;49.112;8.598;2022-12-20T00:58:34;6.50;64.10
32147;DHT22;32190;49.112;8.598;2022-12-20T01:04:25;6.50;64.30
32147;DHT22;32190;49.112;8.598;2022-12-20T01:10:15;6.50;64.40
32147;DHT22;32190;49.112;8.598;2022-12-20T01:16:16;6.50;64.50
32147;DHT22;32190;49.112;8.598;2022-12-20T01:22:08;6.50;64.70
32147;DHT22;32190;49.112;8.598;2022-12-20T01:27:58;6.50;64.60
32147;DHT22;32190;49.112;8.598;2022-12-20T01:33:49;6.50;64.60
32147;DHT22;32190;49.112;8.598;2022-12-20T01:39:40;6.50;64.70
32147;DHT22;32190;49.112;8.598;2022-12-20T01:45:31;6.50;65.30
32147;DHT22;32190;49.112;8.598;2022-12-20T01:51:23;6.50;64.60
32147;DHT22;32190;49.112;8.598;2022-12-20T01:57:21;6.50;64.70
32147;DHT22;32190;49.112;8.598;2022-12-20T02:03:14;6.50;64.80
32147;DHT22;32190;49.112;8.598;2022-12-20T02:09:06;6.50;64.80
32147;DHT22;32190;49.112;8.598;2022-12-20T02:21:37;6.50;65.50
32147;DHT22;32190;49.112;8.598;2022-12-20T02:33:20;6.50;65.10
32147;DHT22;32190;49.112;8.598;2022-12-20T02:39:14;6.60;65.20
32147;DHT22;32190;49.112;8.598;2022-12-20T02:45:07;6.60;65.20
32147;DHT22;32190;49.112;8.598;2022-12-20T02:51:05;6.50;65.20
32147;DHT22;32190;49.112;8.598;2022-12-20T02:57:07;6.60;65.30
32147;DHT22;32190;49.112;8.598;2022-12-20T03:03:00;6.60;65.70
32147;DHT22;32190;49.112;8.598;2022-12-20T03:09:09;6.60;65.40
32147;DHT22;32190;49.112;8.598;2022-12-20T03:15:00;6.60;65.40
32147;DHT22;32190;49.112;8.598;2022-12-20T03:20:51;6.70;65.40
32147;DHT22;32190;49.112;8.598;2022-12-20T03:26:42;6.60;65.30
32147;DHT22;32190;49.112;8.598;2022-12-20T03:32:33;6.70;65.40
32147;DHT22;32190;49.112;8.598;2022-12-20T03:38:24;6.70;65.60
32147;DHT22;32190;49.112;8.598;2022-12-20T03:44:14;6.70;65.90
32147;DHT22;32190;49.112;8.598;2022-12-20T03:50:06;6.70;66.10
32147;DHT22;32190;49.112;8.598;2022-12-20T03:55:57;6.80;66.10
32147;DHT22;32190;49.112;8.598;2022-12-20T04:01:48;6.80;65.90
32147;DHT22;32190;49.112;8.598;2022-12-20T04:07:39;6.80;65.90
32147;DHT22;32190;49.112;8.598;2022-12-20T04:13:29;6.90;65.80
32147;DHT22;32190;49.112;8.598;2022-12-20T04:19:20;6.80;65.80
32147;DHT22;32190;49.112;8.598;2022-12-20T04:25:10;6.90;65.90
32147;DHT22;32190;49.112;8.598;2022-12-20T04:31:02;6.90;65.90
32147;DHT22;32190;49.112;8.598;2022-12-20T04:36:53;6.90;66.00
32147;DHT22;32190;49.112;8.598;2022-12-20T04:42:43;6.90;66.10
32147;DHT22;32190;49.112;8.598;2022-12-20T04:48:34;6.90;66.30
32147;DHT22;32190;49.112;8.598;2022-12-20T04:54:25;6.90;66.50
32147;DHT22;32190;49.112;8.598;2022-12-20T05:00:16;6.90;66.50
32147;DHT22;32190;49.112;8.598;2022-12-20T05:06:07;7.00;66.40
32147;DHT22;32190;49.112;8.598;2022-12-20T05:11:59;7.00;66.60
32147;DHT22;32190;49.112;8.598;2022-12-20T05:17:50;7.00;66.80
32147;DHT22;32190;49.112;8.598;2022-12-20T05:23:41;7.10;66.50
32147;DHT22;32190;49.112;8.598;2022-12-20T05:29:50;7.10;66.40
32147;DHT22;32190;49.112;8.598;2022-12-20T05:35:40;7.10;66.70
32147;DHT22;32190;49.112;8.598;2022-12-20T05:41:31;7.10;67.30
32147;DHT22;32190;49.112;8.598;2022-12-20T05:47:22;7.10;66.60
32147;DHT22;32190;49.112;8.598;2022-12-20T05:53:15;7.10;66.60
32147;DHT22;32190;49.112;8.598;2022-12-20T05:59:06;7.10;66.50
32147;DHT22;32190;49.112;8.598;2022-12-20T06:04:57;7.10;66.50
32147;DHT22;32190;49.112;8.598;2022-12-20T06:10:49;7.10;66.50
32147;DHT22;32190;49.112;8.598;2022-12-20T06:16:40;7.10;66.40
32147;DHT22;32190;49.112;8.598;2022-12-20T06:22:31;7.10;66.30
32147;DHT22;32190;49.112;8.598;2022-12-20T06:28:24;7.10;66.30
32147;DHT22;32190;49.112;8.598;2022-12-20T06:34:16;7.00;66.20
32147;DHT22;32190;49.112;8.598;2022-12-20T06:40:09;7.00;66.30
32147;DHT22;32190;49.112;8.598;2022-12-20T06:46:00;7.00;66.30
32147;DHT22;32190;49.112;8.598;2022-12-20T06:51:50;7.00;66.20
32147;DHT22;32190;49.112;8.598;2022-12-20T06:57:41;7.00;66.20
32147;DHT22;32190;49.112;8.598;2022-12-20T07:03:32;7.00;66.20
32147;DHT22;32190;49.112;8.598;2022-12-20T07:09:23;7.00;66.10
32147;DHT22;32190;49.112;8.598;2022-12-20T07:15:14;7.00;66.10
32147;DHT22;32190;49.112;8.598;2022-12-20T07:21:05;7.00;66.00
32147;DHT22;32190;49.112;8.598;2022-12-20T07:26:55;7.00;66.10
32147;DHT22;32190;49.112;8.598;2022-12-20T07:32:47;6.90;66.30
32147;DHT22;32190;49.112;8.598;2022-12-20T07:38:37;7.00;66.50
32147;DHT22;32190;49.112;8.598;2022-12-20T07:44:28;7.00;66.40
32147;DHT22;32190;49.112;8.598;2022-12-20T07:50:19;7.10;66.20
32147;DHT22;32190;49.112;8.598;2022-12-20T07:56:11;7.10;66.20
32147;DHT22;32190;49.112;8.598;2022-12-20T08:02:03;7.10;66.10
32147;DHT22;32190;49.112;8.598;2022-12-20T08:07:55;7.10;66.20
32147;DHT22;32190;49.112;8.598;2022-12-20T08:13:49;7.10;66.10
32147;DHT22;32190;49.112;8.598;2022-12-20T08:19:40;7.10;66.30
32147;DHT22;32190;49.112;8.598;2022-12-20T08:25:31;7.20;66.50
32147;DHT22;32190;49.112;8.598;2022-12-20T08:31:23;7.20;66.80
32147;DHT22;32190;49.112;8.598;2022-12-20T08:37:15;7.30;67.20
32147;DHT22;32190;49.112;8.598;2022-12-20T08:43:09;7.30;67.50
32147;DHT22;32190;49.112;8.598;2022-12-20T08:49:04;7.40;67.40
32147;DHT22;32190;49.112;8.598;2022-12-20T08:54:55;7.50;67.20
32147;DHT22;32190;49.112;8.598;2022-12-20T09:00:46;7.50;67.90
32147;DHT22;32190;49.112;8.598;2022-12-20T09:06:40;7.60;67.40
32147;DHT22;32190;49.112;8.598;2022-12-20T09:12:30;7.60;67.80
32147;DHT22;32190;49.112;8.598;2022-12-20T09:18:21;7.70;67.90
32147;DHT22;32190;49.112;8.598;2022-12-20T09:24:11;7.80;67.90
32147;DHT22;32190;49.112;8.598;2022-12-20T09:30:03;7.90;67.90
32147;DHT22;32190;49.112;8.598;2022-12-20T09:35:54;7.90;67.90
32147;DHT22;32190;49.112;8.598;2022-12-20T09:41:44;8.00;68.10
32147;DHT22;32190;49.112;8.598;2022-12-20T09:47:36;8.10;68.10
32147;DHT22;32190;49.112;8.598;2022-12-20T09:53:40;8.10;68.30
32147;DHT22;32190;49.112;8.598;2022-12-20T09:59:39;8.20;68.80
32147;DHT22;32190;49.112;8.598;2022-12-20T10:06:12;8.30;68.80
32147;DHT22;32190;49.112;8.598;2022-12-20T10:24:31;8.60;69.70
32147;DHT22;32190;49.112;8.598;2022-12-20T10:30:25;8.70;68.90
32147;DHT22;32190;49.112;8.598;2022-12-20T10:42:33;8.80;68.40
32147;DHT22;32190;49.112;8.598;2022-12-20T10:54:29;8.80;68.60
32147;DHT22;32190;49.112;8.598;2022-12-20T11:00:30;8.90;68.50
32147;DHT22;32190;49.112;8.598;2022-12-20T11:06:28;8.90;68.90
32147;DHT22;32190;49.112;8.598;2022-12-20T11:12:28;8.90;68.40
32147;DHT22;32190;49.112;8.598;2022-12-20T11:18:49;9.00;68.00
32147;DHT22;32190;49.112;8.598;2022-12-20T11:24:51;9.00;68.30
32147;DHT22;32190;49.112;8.598;2022-12-20T11:37:12;8.90;68.50
32147;DHT22;32190;49.112;8.598;2022-12-20T11:55:36;8.90;68.30
32147;DHT22;32190;49.112;8.598;2022-12-20T12:01:36;8.90;68.20
32147;DHT22;32190;49.112;8.598;2022-12-20T12:07:32;9.00;68.50
32147;DHT22;32190;49.112;8.598;2022-12-20T12:13:27;9.00;68.50
32147;DHT22;32190;49.112;8.598;2022-12-20T12:19:18;9.10;68.50
32147;DHT22;32190;49.112;8.598;2022-12-20T12:25:13;9.10;68.30
32147;DHT22;32190;49.112;8.598;2022-12-20T12:31:10;9.20;68.30
32147;DHT22;32190;49.112;8.598;2022-12-20T12:49:12;9.30;68.50
32147;DHT22;32190;49.112;8.598;2022-12-20T12:55:36;9.30;68.50
32147;DHT22;32190;49.112;8.598;2022-12-20T13:01:46;9.40;68.70
32147;DHT22;32190;49.112;8.598;2022-12-20T13:25:38;9.60;68.40
32147;DHT22;32190;49.112;8.598;2022-12-20T13:31:30;9.60;68.60
32147;DHT22;32190;49.112;8.598;2022-12-20T13:37:52;9.60;68.60
32147;DHT22;32190;49.112;8.598;2022-12-20T13:43:44;9.70;69.00
32147;DHT22;32190;49.112;8.598;2022-12-20T13:49:38;9.70;68.30
32147;DHT22;32190;49.112;8.598;2022-12-20T13:55:38;9.70;68.00
32147;DHT22;32190;49.112;8.598;2022-12-20T14:01:33;9.70;67.80
32147;DHT22;32190;49.112;8.598;2022-12-20T14:07:27;9.60;68.00
32147;DHT22;32190;49.112;8.598;2022-12-20T14:13:21;9.60;67.60
32147;DHT22;32190;49.112;8.598;2022-12-20T14:19:13;9.60;67.70
32147;DHT22;32190;49.112;8.598;2022-12-20T14:25:05;9.50;67.80
32147;DHT22;32190;49.112;8.598;2022-12-20T14:30:58;9.50;67.40
32147;DHT22;32190;49.112;8.598;2022-12-20T14:36:50;9.50;67.60
32147;DHT22;32190;49.112;8.598;2022-12-20T14:42:41;9.40;67.60
32147;DHT22;32190;49.112;8.598;2022-12-20T14:48:32;9.40;67.90
32147;DHT22;32190;49.112;8.598;2022-12-20T14:54:27;9.40;68.00
32147;DHT22;32190;49.112;8.598;2022-12-20T15:06:32;9.40;67.60
32147;DHT22;32190;49.112;8.598;2022-12-20T15:12:23;9.40;67.60
32147;DHT22;32190;49.112;8.598;2022-12-20T15:18:16;9.30;67.50
32147;DHT22;32190;49.112;8.598;2022-12-20T15:24:13;9.30;67.40
32147;DHT22;32190;49.112;8.598;2022-12-20T15:30:10;9.30;67.20
32147;DHT22;32190;49.112;8.598;2022-12-20T15:36:02;9.30;67.20
32147;DHT22;32190;49.112;8.598;2022-12-20T15:41:59;9.20;67.20
32147;DHT22;32190;49.112;8.598;2022-12-20T15:48:31;9.20;67.50
32147;DHT22;32190;49.112;8.598;2022-12-20T15:54:55;9.20;67.60
32147;DHT22;32190;49.112;8.598;2022-12-20T16:01:46;9.20;67.60
32147;DHT22;32190;49.112;8.598;2022-12-20T16:08:07;9.10;67.30
32147;DHT22;32190;49.112;8.598;2022-12-20T16:55:33;9.00;67.10
32147;DHT22;32190;49.112;8.598;2022-12-20T17:08:09;8.90;66.90
32147;DHT22;32190;49.112;8.598;2022-12-20T17:14:14;9.00;67.00
32147;DHT22;32190;49.112;8.598;2022-12-20T17:20:09;8.90;67.00
32147;DHT22;32190;49.112;8.598;2022-12-20T17:26:03;8.90;66.90
32147;DHT22;32190;49.112;8.598;2022-12-20T17:32:00;8.90;66.80
32147;DHT22;32190;49.112;8.598;2022-12-20T17:38:04;8.90;66.70
32147;DHT22;32190;49.112;8.598;2022-12-20T17:44:00;8.90;66.70
32147;DHT22;32190;49.112;8.598;2022-12-20T17:49:55;8.90;66.80
32147;DHT22;32190;49.112;8.598;2022-12-20T17:55:51;8.80;66.60
32147;DHT22;32190;49.112;8.598;2022-12-20T18:01:43;8.80;66.50
32147;DHT22;32190;49.112;8.598;2022-12-20T18:07:40;8.80;66.50
32147;DHT22;32190;49.112;8.598;2022-12-20T18:13:33;8.80;66.60
32147;DHT22;32190;49.112;8.598;2022-12-20T18:19:24;8.80;67.40
32147;DHT22;32190;49.112;8.598;2022-12-20T18:25:14;8.80;67.00
32147;DHT22;32190;49.112;8.598;2022-12-20T18:31:09;8.80;66.90
32147;DHT22;32190;49.112;8.598;2022-12-20T18:37:00;8.90;66.90
32147;DHT22;32190;49.112;8.598;2022-12-20T18:42:51;8.90;66.80
32147;DHT22;32190;49.112;8.598;2022-12-20T18:48:44;8.90;66.80
32147;DHT22;32190;49.112;8.598;2022-12-20T18:54:34;8.90;66.50
32147;DHT22;32190;49.112;8.598;2022-12-20T19:00:25;8.90;66.50
32147;DHT22;32190;49.112;8.598;2022-12-20T19:06:16;8.90;66.70
32147;DHT22;32190;49.112;8.598;2022-12-20T19:12:07;8.90;66.80
32147;DHT22;32190;49.112;8.598;2022-12-20T19:18:01;8.90;66.70
32147;DHT22;32190;49.112;8.598;2022-12-20T19:23:57;8.90;66.60
32147;DHT22;32190;49.112;8.598;2022-12-20T19:29:48;8.90;66.50
32147;DHT22;32190;49.112;8.598;2022-12-20T19:35:38;8.90;66.60
32147;DHT22;32190;49.112;8.598;2022-12-20T19:41:31;8.90;66.90
32147;DHT22;32190;49.112;8.598;2022-12-20T19:47:24;9.00;67.10
32147;DHT22;32190;49.112;8.598;2022-12-20T19:53:18;9.00;67.30
32147;DHT22;32190;49.112;8.598;2022-12-20T19:59:09;9.00;67.30
32147;DHT22;32190;49.112;8.598;2022-12-20T20:05:02;9.10;67.30
32147;DHT22;32190;49.112;8.598;2022-12-20T20:10:57;9.10;67.30
32147;DHT22;32190;49.112;8.598;2022-12-20T20:16:48;9.10;67.30
32147;DHT22;32190;49.112;8.598;2022-12-20T20:22:39;9.20;67.30
32147;DHT22;32190;49.112;8.598;2022-12-20T20:28:35;9.20;67.30
32147;DHT22;32190;49.112;8.598;2022-12-20T20:34:29;9.20;67.50
32147;DHT22;32190;49.112;8.598;2022-12-20T20:40:19;9.20;67.30
32147;DHT22;32190;49.112;8.598;2022-12-20T20:46:14;9.20;67.20
32147;DHT22;32190;49.112;8.598;2022-12-20T20:52:05;9.20;67.10
32147;DHT22;32190;49.112;8.598;2022-12-20T20:57:56;9.20;67.10
32147;DHT22;32190;49.112;8.598;2022-12-20T21:03:55;9.20;66.90
32147;DHT22;32190;49.112;8.598;2022-12-20T21:09:49;9.20;67.30
32147;DHT22;32190;49.112;8.598;2022-12-20T21:15:53;9.20;67.10
32147;DHT22;32190;49.112;8.598;2022-12-20T21:21:56;9.10;67.10
32147;DHT22;32190;49.112;8.598;2022-12-20T21:28:16;9.10;67.20
32147;DHT22;32190;49.112;8.598;2022-12-20T21:34:10;9.10;67.00
32147;DHT22;32190;49.112;8.598;2022-12-20T21:40:49;9.10;67.00
32147;DHT22;32190;49.112;8.598;2022-12-20T21:46:40;9.10;67.30
32147;DHT22;32190;49.112;8.598;2022-12-20T21:52:34;9.10;67.10
32147;DHT22;32190;49.112;8.598;2022-12-20T21:58:28;9.10;68.20
32147;DHT22;32190;49.112;8.598;2022-12-20T22:04:29;9.10;69.10
32147;DHT22;32190;49.112;8.598;2022-12-20T22:10:25;9.20;68.80
32147;DHT22;32190;49.112;8.598;2022-12-20T22:16:23;9.30;68.60
32147;DHT22;32190;49.112;8.598;2022-12-20T22:22:15;9.30;68.50
32147;DHT22;32190;49.112;8.598;2022-12-20T22:28:07;9.40;68.70
32147;DHT22;32190;49.112;8.598;2022-12-20T22:33:59;9.40;68.80
32147;DHT22;32190;49.112;8.598;2022-12-20T22:39:50;9.50;68.90
32147;DHT22;32190;49.112;8.598;2022-12-20T22:45:40;9.50;68.90
32147;DHT22;32190;49.112;8.598;2022-12-20T22:51:31;9.50;68.80
32147;DHT22;32190;49.112;8.598;2022-12-20T22:57:22;9.50;68.70
32147;DHT22;32190;49.112;8.598;2022-12-20T23:03:13;9.50;68.50
32147;DHT22;32190;49.112;8.598;2022-12-20T23:09:04;9.50;68.20
32147;DHT22;32190;49.112;8.598;2022-12-20T23:14:54;9.40;68.20
32147;DHT22;32190;49.112;8.598;2022-12-20T23:20:57;9.40;68.20
32147;DHT22;32190;49.112;8.598;2022-12-20T23:27:06;9.40;68.10
32147;DHT22;32190;49.112;8.598;2022-12-20T23:32:56;9.30;68.10
32147;DHT22;32190;49.112;8.598;2022-12-20T23:38:47;9.30;68.40
32147;DHT22;32190;49.112;8.598;2022-12-20T23:44:38;9.30;68.40
32147;DHT22;32190;49.112;8.598;2022-12-20T23:50:28;9.30;68.10
32147;DHT22;32190;49.112;8.598;2022-12-20T23:56:20;9.30;68.00
